Time;durP1;ratioP1;P1;durP2;ratioP2;P2;SDS_P1;SDS_P2;PMS_P1;PMS_P2;Temp;Humidity;BMP_temperature;BMP_pressure;BME280_temperature;BME280_humidity;BME280_pressure;Samples;Min_cycle;Max_cycle;Signal;HPM_P1;HPM_P2
2022/08/02 00:00:40;;;;;;;2.55;1.00;;;29.90;56.00;;;;;;10903830;32;20027;-70
2022/08/02 00:06:43;;;;;;;0.88;0.47;;;30.00;55.80;;;;;;10908546;32;20313;-69
2022/08/02 00:12:45;;;;;;;0.85;0.85;;;29.90;56.10;;;;;;10910932;32;20022;-70
2022/08/02 00:18:47;;;;;;;2.20;0.95;;;29.80;56.50;;;;;;10910757;32;20054;-71
2022/08/02 00:24:49;;;;;;;0.68;0.65;;;29.70;56.80;;;;;;10910654;32;20384;-70
2022/08/02 00:30:51;;;;;;;1.70;0.88;;;29.60;57.40;;;;;;10897065;32;20023;-69
2022/08/02 00:36:54;;;;;;;3.67;1.12;;;29.40;57.80;;;;;;10910117;32;20328;-68
2022/08/02 00:43:03;;;;;;;2.78;1.60;;;29.30;58.50;;;;;;10909962;32;20082;-68
2022/08/02 00:49:05;;;;;;;4.60;1.85;;;29.30;58.90;;;;;;10909516;32;20027;-69
2022/08/02 00:55:09;;;;;;;2.33;1.30;;;29.10;59.50;;;;;;10906687;32;20077;-68
2022/08/02 01:01:11;;;;;;;6.62;1.60;;;29.00;60.30;;;;;;10906103;32;20395;-69
2022/08/02 01:07:14;;;;;;;6.03;1.35;;;28.90;59.70;;;;;;10905430;32;20031;-67
2022/08/02 01:13:16;;;;;;;8.00;1.35;;;28.80;58.70;;;;;;10906286;32;20437;-68
2022/08/02 01:19:34;;;;;;;5.32;1.58;;;28.60;58.60;;;;;;10907015;32;20399;-68
2022/08/02 01:25:47;;;;;;;6.22;0.90;;;28.60;57.70;;;;;;10904210;32;20054;-67
2022/08/02 01:31:56;;;;;;;1.85;0.73;;;28.50;58.20;;;;;;10905272;32;20031;-68
2022/08/02 01:38:08;;;;;;;20.55;1.70;;;28.40;57.80;;;;;;10905598;32;20035;-68
2022/08/02 01:44:12;;;;;;;9.27;0.88;;;28.30;57.70;;;;;;10903849;32;20035;-69
2022/08/02 01:50:19;;;;;;;7.10;0.68;;;28.30;58.60;;;;;;10903318;32;20031;-67
2022/08/02 01:56:21;;;;;;;1.10;0.75;;;28.10;59.00;;;;;;10903376;32;20049;-67
2022/08/02 02:02:25;;;;;;;0.30;0.30;;;28.10;59.00;;;;;;10903397;32;20023;-67
2022/08/02 02:08:42;;;;;;;0.50;0.40;;;28.10;59.50;;;;;;10904621;32;20403;-67
2022/08/02 02:14:44;;;;;;;1.10;0.85;;;28.00;59.00;;;;;;10902564;32;20340;-67
2022/08/02 02:20:47;;;;;;;8.00;1.12;;;28.00;59.00;;;;;;10902393;32;20047;-67
2022/08/02 02:26:50;;;;;;;5.57;0.90;;;27.90;61.30;;;;;;10905147;32;20065;-67
2022/08/02 02:32:56;;;;;;;1.23;0.80;;;27.90;61.40;;;;;;10901758;32;20027;-67
2022/08/02 02:39:03;;;;;;;1.30;0.60;;;27.80;60.70;;;;;;10902993;32;20054;-69
2022/08/02 02:45:06;;;;;;;2.35;0.88;;;27.70;60.30;;;;;;10902046;32;20027;-67
2022/08/02 02:51:10;;;;;;;7.20;1.80;;;27.60;60.20;;;;;;10902169;32;20027;-67
2022/08/02 02:57:13;;;;;;;7.00;0.82;;;27.50;60.80;;;;;;10901096;32;20117;-67
2022/08/02 03:03:16;;;;;;;1.15;0.52;;;27.40;61.40;;;;;;10888061;32;20061;-67
2022/08/02 03:09:18;;;;;;;1.40;0.55;;;27.30;61.50;;;;;;10902081;32;20046;-67
2022/08/02 03:15:21;;;;;;;11.77;1.08;;;27.20;62.00;;;;;;10887582;32;20031;-67
2022/08/02 03:21:31;;;;;;;2.12;0.75;;;27.10;62.60;;;;;;10890793;32;20057;-68
2022/08/02 03:27:33;;;;;;;1.37;0.73;;;27.00;62.20;;;;;;10900813;32;20035;-68
2022/08/02 03:33:36;;;;;;;0.60;0.60;;;26.90;63.10;;;;;;10902331;32;20058;-67
2022/08/02 03:39:38;;;;;;;1.83;0.90;;;26.80;65.20;;;;;;10904566;32;20032;-67
2022/08/02 03:45:46;;;;;;;2.28;0.73;;;26.70;66.80;;;;;;10908080;32;20396;-68
2022/08/02 03:51:49;;;;;;;1.08;0.93;;;26.70;67.40;;;;;;10907604;32;20031;-68
2022/08/02 03:57:51;;;;;;;3.72;0.93;;;26.30;68.90;;;;;;10907382;32;20031;-67
2022/08/02 04:03:54;;;;;;;0.85;0.60;;;26.20;69.30;;;;;;10898063;32;20019;-68
2022/08/02 04:09:56;;;;;;;1.65;0.30;;;26.30;68.90;;;;;;10897816;32;20031;-68
2022/08/02 04:16:12;;;;;;;0.45;0.40;;;26.50;68.30;;;;;;10910948;32;20023;-68
2022/08/02 04:22:55;;;;;;;2.25;0.50;;;26.40;68.00;;;;;;10909421;32;20032;-68
2022/08/02 04:28:58;;;;;;;0.50;0.40;;;26.50;67.50;;;;;;10799638;27;20079;-68
2022/08/02 04:35:00;;;;;;;0.30;0.25;;;26.50;67.30;;;;;;10791760;33;20020;-69
2022/08/02 04:41:02;;;;;;;0.90;0.47;;;26.50;66.80;;;;;;10795076;33;20397;-69
2022/08/02 04:47:05;;;;;;;0.30;0.25;;;26.40;66.50;;;;;;10791572;33;20067;-69
2022/08/02 04:53:07;;;;;;;1.55;0.40;;;26.30;66.30;;;;;;10794596;33;20056;-71
2022/08/02 04:59:09;;;;;;;3.05;1.30;;;25.90;66.20;;;;;;10793979;33;20058;-70
2022/08/02 05:05:11;;;;;;;6.22;0.85;;;25.40;66.20;;;;;;10867818;32;20339;-70
2022/08/02 05:11:14;;;;;;;1.85;0.80;;;24.90;66.40;;;;;;10905601;32;20058;-68
2022/08/02 05:17:16;;;;;;;1.80;0.82;;;24.80;66.80;;;;;;10895612;32;20042;-68
2022/08/02 05:23:18;;;;;;;0.82;0.55;;;25.00;66.80;;;;;;10891091;32;20038;-68
2022/08/02 05:29:21;;;;;;;0.47;0.45;;;25.30;66.30;;;;;;10903865;32;20053;-68
2022/08/02 05:35:23;;;;;;;0.50;0.50;;;25.30;66.80;;;;;;10904067;32;20391;-68
2022/08/02 05:41:26;;;;;;;1.95;1.10;;;25.30;66.50;;;;;;10903663;32;20024;-68
2022/08/02 05:47:28;;;;;;;1.55;0.62;;;25.50;66.70;;;;;;10903461;32;20059;-68
2022/08/02 05:53:49;;;;;;;3.22;1.10;;;25.60;67.00;;;;;;10903305;32;20054;-68
2022/08/02 06:00:10;;;;;;;0.93;0.55;;;25.60;67.10;;;;;;10905469;32;20015;-68
2022/08/02 06:06:19;;;;;;;0.77;0.60;;;25.70;66.70;;;;;;10903284;32;20019;-68
2022/08/02 06:12:24;;;;;;;1.20;0.73;;;25.40;67.50;;;;;;10902557;32;20035;-67
2022/08/02 06:18:27;;;;;;;2.45;0.60;;;25.50;67.50;;;;;;10902376;32;20031;-67
2022/08/02 06:24:32;;;;;;;2.45;0.80;;;25.70;66.80;;;;;;10902343;32;20031;-67
2022/08/02 06:30:35;;;;;;;3.28;0.93;;;25.50;66.60;;;;;;10880911;32;20328;-67
2022/08/02 06:36:46;;;;;;;2.83;0.73;;;25.60;66.80;;;;;;10864358;32;20185;-68
2022/08/02 06:42:55;;;;;;;1.05;0.65;;;25.60;66.40;;;;;;10864535;32;20030;-67
2022/08/02 06:49:00;;;;;;;6.03;1.17;;;25.50;66.60;;;;;;10865538;32;20067;-67
2022/08/02 06:55:03;;;;;;;0.50;0.45;;;25.30;66.50;;;;;;10864661;32;20388;-67
2022/08/02 07:01:06;;;;;;;0.60;0.45;;;25.30;66.30;;;;;;10865924;32;20058;-67
2022/08/02 07:07:08;;;;;;;2.60;0.70;;;25.30;66.30;;;;;;10863842;32;20404;-67
2022/08/02 07:13:11;;;;;;;2.90;0.82;;;25.40;65.90;;;;;;10863251;32;20039;-67
2022/08/02 07:19:13;;;;;;;1.05;0.68;;;25.50;65.80;;;;;;10850206;32;20016;-67
2022/08/02 07:25:17;;;;;;;3.05;0.80;;;25.70;65.60;;;;;;10863134;32;20027;-66
2022/08/02 07:31:24;;;;;;;1.02;0.88;;;25.60;65.40;;;;;;10850702;32;20024;-67
2022/08/02 07:37:42;;;;;;;1.33;0.93;;;25.60;65.40;;;;;;10862885;32;20078;-66
2022/08/02 07:43:44;;;;;;;2.58;1.45;;;25.50;65.30;;;;;;10862745;32;20488;-66
2022/08/02 07:49:46;;;;;;;3.78;1.90;;;25.40;65.20;;;;;;10862778;32;20035;-67
2022/08/02 07:55:50;;;;;;;1.27;1.10;;;25.60;65.00;;;;;;10862522;32;20024;-66
2022/08/02 08:01:52;;;;;;;0.85;0.80;;;25.60;64.80;;;;;;10863305;32;20050;-67
2022/08/02 08:07:54;;;;;;;1.17;0.98;;;25.60;64.70;;;;;;10864438;32;20439;-67
2022/08/02 08:13:56;;;;;;;4.10;1.27;;;25.80;64.30;;;;;;10864167;32;20328;-68
2022/08/02 08:20:00;;;;;;;0.88;0.57;;;26.20;64.00;;;;;;10862068;32;20324;-68
2022/08/02 08:26:04;;;;;;;2.37;0.98;;;26.40;63.90;;;;;;10865190;32;20421;-67
2022/08/02 08:32:12;;;;;;;1.90;1.20;;;26.50;64.00;;;;;;10868830;32;20038;-69
2022/08/02 08:38:15;;;;;;;1.02;0.90;;;26.60;63.80;;;;;;10868952;32;20027;-71
2022/08/02 08:44:17;;;;;;;1.15;0.52;;;26.50;63.80;;;;;;10855863;32;20094;-71
2022/08/02 08:50:23;;;;;;;0.93;0.60;;;26.60;63.80;;;;;;10869900;32;20028;-71
2022/08/02 08:56:31;;;;;;;10.25;1.08;;;26.60;63.40;;;;;;10868001;32;20065;-72
2022/08/02 09:02:56;;;;;;;1.37;0.70;;;26.60;63.20;;;;;;10871290;32;20019;-71
2022/08/02 09:09:00;;;;;;;0.93;0.52;;;26.80;62.90;;;;;;10827501;32;20027;-70
2022/08/02 09:15:05;;;;;;;0.77;0.70;;;27.10;62.40;;;;;;10828121;32;20020;-70
2022/08/02 09:21:09;;;;;;;0.82;0.60;;;27.30;62.00;;;;;;10828616;32;20059;-70
2022/08/02 09:27:21;;;;;;;1.93;0.83;;;27.40;61.80;;;;;;10827257;32;20329;-70
2022/08/02 09:33:27;;;;;;;0.85;0.50;;;27.70;61.50;;;;;;10829809;32;20434;-71
2022/08/02 09:39:45;;;;;;;0.98;0.45;;;28.00;61.00;;;;;;10859360;32;20426;-71
2022/08/02 09:45:48;;;;;;;1.08;0.65;;;28.10;60.90;;;;;;10866277;32;20031;-71
2022/08/02 09:51:57;;;;;;;0.90;0.62;;;28.10;61.00;;;;;;10867356;32;20020;-72
2022/08/02 09:58:30;;;;;;;2.92;1.15;;;28.20;61.00;;;;;;10868712;32;20050;-73
2022/08/02 10:04:44;;;;;;;0.88;0.65;;;28.20;60.80;;;;;;10756094;33;20058;-71
2022/08/02 10:10:47;;;;;;;1.35;0.57;;;28.30;60.80;;;;;;10750865;32;20048;-70
2022/08/02 10:16:52;;;;;;;1.30;0.70;;;28.70;60.30;;;;;;10751009;33;20337;-72
2022/08/02 10:22:55;;;;;;;1.17;0.90;;;28.90;59.60;;;;;;10753068;33;20048;-70
2022/08/02 10:28:58;;;;;;;0.52;0.40;;;29.10;59.00;;;;;;10752263;33;20098;-70
2022/08/02 10:35:11;;;;;;;0.70;0.45;;;29.20;58.70;;;;;;10752083;33;20314;-72
2022/08/02 10:41:53;;;;;;;0.73;0.57;;;29.30;58.10;;;;;;10851727;32;20028;-71
2022/08/02 10:48:10;;;;;;;2.87;0.68;;;29.50;57.70;;;;;;10866764;32;20050;-70
2022/08/02 10:54:19;;;;;;;1.17;0.68;;;29.80;57.20;;;;;;10865315;32;20023;-69
2022/08/02 11:00:21;;;;;;;1.25;0.50;;;29.90;56.50;;;;;;10865520;32;20032;-70
2022/08/02 11:06:24;;;;;;;0.75;0.35;;;30.20;55.90;;;;;;10867573;32;20036;-72
2022/08/02 11:12:29;;;;;;;2.20;1.10;;;30.50;55.20;;;;;;10867605;32;20020;-70
2022/08/02 11:18:57;;;;;;;2.60;0.32;;;30.80;54.50;;;;;;10867024;32;20015;-71
2022/08/02 11:25:21;;;;;;;0.55;0.52;;;31.10;53.60;;;;;;10866514;32;20027;-71
2022/08/02 11:31:23;;;;;;;1.10;0.80;;;31.40;53.00;;;;;;10441934;32;12139643;-70
2022/08/02 11:37:29;;;;;;;0.88;0.60;;;31.60;52.30;;;;;;10789378;33;20063;-71
2022/08/02 11:43:45;;;;;;;1.50;0.77;;;31.80;51.50;;;;;;10785812;33;20051;-72
2022/08/02 11:49:47;;;;;;;0.45;0.45;;;31.90;51.10;;;;;;10787642;33;20063;-71
2022/08/02 11:55:58;;;;;;;0.40;0.40;;;32.00;50.80;;;;;;10824208;32;20050;-71
2022/08/02 12:02:05;;;;;;;1.30;0.60;;;32.30;49.90;;;;;;10870440;32;20008;-70
2022/08/02 12:08:37;;;;;;;0.43;0.30;;;32.30;49.50;;;;;;10871263;32;20058;-68
2022/08/02 12:14:43;;;;;;;0.60;0.30;;;32.70;49.30;;;;;;10871126;32;20332;-68
2022/08/02 12:20:45;;;;;;;0.73;0.60;;;32.80;48.20;;;;;;10871284;32;20070;-68
2022/08/02 12:26:47;;;;;;;1.08;0.60;;;32.60;47.80;;;;;;10871026;32;20074;-68
2022/08/02 12:32:49;;;;;;;0.50;0.50;;;32.70;47.40;;;;;;10909973;27;20039;-68
2022/08/02 12:38:57;;;;;;;0.80;0.60;;;32.70;46.70;;;;;;10906049;32;20032;-69
2022/08/02 12:45:00;;;;;;;1.90;0.80;;;32.50;46.10;;;;;;10910677;32;20023;-68
2022/08/02 12:51:22;;;;;;;2.10;0.65;;;32.60;45.60;;;;;;10906550;32;20054;-69
2022/08/02 12:57:24;;;;;;;0.68;0.68;;;32.70;44.60;;;;;;10905407;32;20046;-67
2022/08/02 13:03:27;;;;;;;0.50;0.43;;;32.80;43.80;;;;;;10906367;32;20046;-70
2022/08/02 13:09:35;;;;;;;2.40;0.85;;;32.60;42.80;;;;;;10895280;32;20050;-67
2022/08/02 13:15:45;;;;;;;0.52;0.50;;;32.60;42.30;;;;;;10906575;32;20375;-69
2022/08/02 13:21:47;;;;;;;0.95;0.65;;;32.60;41.10;;;;;;10904602;32;20348;-69
2022/08/02 13:27:50;;;;;;;0.65;0.40;;;32.80;41.50;;;;;;10904151;32;20438;-71
2022/08/02 13:33:52;;;;;;;0.70;0.45;;;32.90;40.90;;;;;;10904454;32;20372;-69
2022/08/02 13:39:54;;;;;;;1.45;0.60;;;33.00;40.90;;;;;;10894742;32;20113;-68
2022/08/02 13:45:56;;;;;;;0.85;0.50;;;32.90;40.70;;;;;;10904114;32;20062;-69
2022/08/02 13:51:59;;;;;;;0.52;0.52;;;32.80;40.30;;;;;;10907622;32;20461;-69
2022/08/02 13:58:14;;;;;;;2.25;0.70;;;32.80;40.70;;;;;;10905129;32;20015;-69
2022/08/02 14:04:20;;;;;;;0.30;0.30;;;32.90;40.40;;;;;;10902463;32;20399;-69
2022/08/02 14:10:25;;;;;;;0.80;0.30;;;32.90;40.70;;;;;;10898138;32;20015;-69
2022/08/02 14:16:27;;;;;;;0.70;0.60;;;33.10;40.30;;;;;;10904808;32;20028;-67
2022/08/02 14:22:29;;;;;;;0.98;0.45;;;33.10;39.90;;;;;;10901796;32;20051;-69
2022/08/02 14:28:38;;;;;;;0.35;0.35;;;33.00;40.10;;;;;;10905282;32;20028;-69
2022/08/02 14:34:40;;;;;;;1.00;0.57;;;33.20;40.10;;;;;;10901952;32;20023;-68
2022/08/02 14:40:42;;;;;;;0.55;0.50;;;33.20;39.90;;;;;;10905408;32;20027;-69
2022/08/02 14:46:44;;;;;;;1.00;0.65;;;33.20;39.80;;;;;;10905628;32;20031;-67
2022/08/02 14:52:48;;;;;;;1.17;0.43;;;33.20;39.40;;;;;;10905513;32;20046;-69
2022/08/02 14:58:51;;;;;;;1.25;0.55;;;33.30;39.70;;;;;;10901275;32;20379;-69
2022/08/02 15:04:54;;;;;;;0.98;0.57;;;33.30;39.90;;;;;;10872175;32;20023;-69
2022/08/02 15:10:56;;;;;;;0.98;0.55;;;33.40;39.70;;;;;;10867567;32;20050;-68
2022/08/02 15:17:02;;;;;;;0.47;0.47;;;33.40;39.20;;;;;;10866346;32;20047;-68
2022/08/02 15:23:04;;;;;;;0.55;0.47;;;33.40;39.20;;;;;;10867372;32;20023;-70
2022/08/02 15:29:06;;;;;;;1.12;0.57;;;33.40;39.20;;;;;;10889553;32;20058;-67
2022/08/02 15:35:08;;;;;;;0.62;0.55;;;33.40;38.40;;;;;;10904049;32;20027;-70
2022/08/02 15:41:10;;;;;;;0.62;0.57;;;33.50;38.80;;;;;;10904172;32;20272;-70
2022/08/02 15:54:45;;;;;;;0.77;0.40;;;33.70;38.30;;;;;;10753488;33;20100;-69
2022/08/02 16:00:48;;;;;;;0.70;0.50;;;33.80;38.50;;;;;;10738886;33;20032;-69
2022/08/02 16:07:05;;;;;;;1.25;0.68;;;33.90;38.00;;;;;;10715931;33;20157;-69
2022/08/02 16:19:28;;;;;;;0.57;0.50;;;33.90;38.10;;;;;;10730789;33;20067;-68
2022/08/02 16:25:30;;;;;;;0.43;0.35;;;33.90;37.90;;;;;;10720242;32;20021;-71
2022/08/02 16:31:33;;;;;;;0.85;0.57;;;33.90;37.60;;;;;;10862102;32;20020;-69
2022/08/02 16:37:35;;;;;;;1.02;0.65;;;33.90;37.60;;;;;;10862017;32;20015;-69
2022/08/02 16:43:37;;;;;;;0.77;0.62;;;33.90;37.60;;;;;;10865863;32;20024;-69
2022/08/02 16:49:39;;;;;;;1.65;0.60;;;33.90;37.30;;;;;;10870410;32;20058;-69
2022/08/02 16:55:41;;;;;;;1.10;0.60;;;33.80;37.70;;;;;;10870629;32;20054;-69
2022/08/02 17:01:43;;;;;;;1.17;0.57;;;33.90;37.70;;;;;;10871985;32;20384;-69
2022/08/02 17:07:45;;;;;;;0.88;0.50;;;33.90;37.90;;;;;;10871787;32;20028;-69
2022/08/02 17:13:48;;;;;;;1.55;0.32;;;34.00;37.80;;;;;;10871005;32;20045;-69
2022/08/02 17:20:13;;;;;;;1.00;0.73;;;34.10;37.50;;;;;;10871295;32;20043;-69
2022/08/02 17:26:15;;;;;;;0.80;0.70;;;34.20;37.30;;;;;;10870741;32;20058;-70
2022/08/02 17:32:18;;;;;;;0.90;0.50;;;34.30;37.30;;;;;;10871072;32;20031;-70
2022/08/02 17:38:21;;;;;;;1.20;0.62;;;34.40;37.30;;;;;;10857472;32;20050;-69
2022/08/02 17:44:23;;;;;;;0.43;0.37;;;34.90;37.20;;;;;;10869667;32;20020;-70
2022/08/02 17:50:25;;;;;;;1.52;0.77;;;36.10;36.10;;;;;;10870050;32;20024;-70
2022/08/02 17:56:27;;;;;;;0.60;0.40;;;37.40;34.90;;;;;;10866081;32;20046;-70
2022/08/02 18:02:29;;;;;;;1.15;0.60;;;37.60;34.70;;;;;;10869858;32;20058;-70
2022/08/02 18:08:31;;;;;;;0.55;0.32;;;36.40;36.30;;;;;;10869407;32;20411;-70
2022/08/02 18:14:33;;;;;;;0.75;0.40;;;35.60;37.60;;;;;;10869173;32;20317;-70
2022/08/02 18:20:35;;;;;;;1.20;0.62;;;35.00;38.40;;;;;;10869445;32;20344;-70
2022/08/02 18:26:40;;;;;;;2.78;0.60;;;34.20;39.50;;;;;;10868827;32;20042;-70
2022/08/02 18:32:42;;;;;;;1.87;0.55;;;33.60;40.40;;;;;;10865578;32;20024;-69
2022/08/02 18:38:44;;;;;;;1.25;0.65;;;33.10;41.10;;;;;;10864474;32;20023;-69
2022/08/02 18:45:04;;;;;;;0.43;0.25;;;32.70;41.80;;;;;;10868590;32;20046;-69
2022/08/02 18:51:07;;;;;;;0.43;0.30;;;32.40;42.30;;;;;;10869584;32;20426;-69
2022/08/02 18:57:09;;;;;;;0.93;0.68;;;32.30;42.90;;;;;;10868089;32;20082;-69
2022/08/02 19:03:12;;;;;;;1.30;0.77;;;32.00;43.50;;;;;;10868012;32;20431;-70
2022/08/02 19:09:14;;;;;;;0.68;0.52;;;31.80;44.10;;;;;;10867327;32;20019;-70
2022/08/02 19:15:17;;;;;;;0.95;0.68;;;31.60;44.40;;;;;;10865262;32;20042;-70
2022/08/02 19:21:19;;;;;;;3.67;0.75;;;31.40;45.10;;;;;;10867364;32;20383;-70
2022/08/02 19:27:25;;;;;;;1.05;0.95;;;31.30;45.50;;;;;;10866669;32;20020;-69
2022/08/02 19:33:28;;;;;;;2.20;0.95;;;31.20;45.80;;;;;;10866159;32;20031;-70
2022/08/02 19:39:31;;;;;;;1.92;1.05;;;31.10;46.30;;;;;;10866647;32;20043;-70
2022/08/02 19:45:34;;;;;;;2.33;0.82;;;30.90;46.40;;;;;;10866882;32;20050;-70
2022/08/02 19:51:36;;;;;;;1.40;0.70;;;30.80;46.60;;;;;;10862599;32;20031;-70
2022/08/02 19:57:39;;;;;;;4.22;0.85;;;30.80;46.80;;;;;;10866625;32;20058;-69
2022/08/02 20:03:44;;;;;;;3.22;1.37;;;30.70;47.20;;;;;;10865192;32;20046;-71
2022/08/02 20:09:46;;;;;;;5.97;1.52;;;30.80;47.50;;;;;;10865574;32;20054;-69
2022/08/02 20:15:48;;;;;;;2.90;1.27;;;30.60;47.70;;;;;;10865469;32;20016;-69
2022/08/02 20:21:50;;;;;;;2.25;0.93;;;30.50;48.20;;;;;;10870038;32;20023;-69
2022/08/02 20:27:52;;;;;;;2.40;1.10;;;30.50;48.30;;;;;;10882517;27;20359;-69
2022/08/02 20:33:55;;;;;;;3.17;0.80;;;30.30;48.50;;;;;;10910454;32;20015;-69
2022/08/02 20:39:57;;;;;;;2.25;1.20;;;30.30;48.70;;;;;;10909815;32;20098;-69
2022/08/02 20:46:02;;;;;;;1.85;1.12;;;30.30;48.90;;;;;;10905472;32;20336;-69
2022/08/02 20:52:04;;;;;;;3.92;1.42;;;30.20;49.30;;;;;;10909353;32;20036;-69
2022/08/02 20:58:06;;;;;;;2.33;0.85;;;30.10;49.50;;;;;;10909713;32;20015;-69
2022/08/02 21:04:09;;;;;;;1.42;0.77;;;30.00;49.60;;;;;;10909543;32;20077;-69
2022/08/02 21:10:12;;;;;;;5.85;1.10;;;29.90;50.10;;;;;;10905104;32;20049;-69
2022/08/02 21:16:19;;;;;;;2.75;1.12;;;29.90;50.70;;;;;;10909077;32;20031;-70
2022/08/02 21:22:21;;;;;;;0.85;0.70;;;29.70;51.50;;;;;;10908803;32;20031;-69
2022/08/02 21:28:25;;;;;;;1.48;1.00;;;29.60;51.90;;;;;;10907752;32;20073;-69
2022/08/02 21:34:28;;;;;;;3.33;1.42;;;29.60;52.10;;;;;;10908147;32;20046;-70
2022/08/02 21:40:30;;;;;;;1.62;1.02;;;29.60;52.20;;;;;;10908367;32;20027;-69
2022/08/02 21:46:33;;;;;;;2.15;1.62;;;29.40;52.20;;;;;;10908205;32;20015;-70
2022/08/02 21:52:35;;;;;;;4.68;1.65;;;29.30;52.40;;;;;;10907743;32;20355;-71
2022/08/02 21:58:37;;;;;;;2.08;1.42;;;29.30;52.40;;;;;;10907544;32;20050;-69
2022/08/02 22:04:42;;;;;;;2.87;1.65;;;29.30;52.40;;;;;;10907541;32;20086;-69
2022/08/02 22:11:02;;;;;;;3.92;2.08;;;29.20;52.80;;;;;;10907182;32;20027;-69
2022/08/02 22:17:04;;;;;;;3.05;1.77;;;29.20;53.00;;;;;;10907033;32;20045;-69
2022/08/02 22:23:06;;;;;;;3.70;1.70;;;29.20;53.10;;;;;;10906664;32;20015;-69
2022/08/02 22:29:16;;;;;;;3.20;1.85;;;29.10;53.50;;;;;;10906309;32;20057;-68
2022/08/02 22:35:18;;;;;;;2.03;1.12;;;29.10;53.70;;;;;;10906390;32;20379;-69
2022/08/02 22:41:21;;;;;;;1.83;1.08;;;29.00;53.90;;;;;;10906291;32;20370;-69
2022/08/02 22:47:57;;;;;;;3.12;1.20;;;29.00;53.90;;;;;;10905233;32;20057;-69
2022/08/02 22:54:00;;;;;;;1.58;1.17;;;29.00;54.10;;;;;;10905652;32;20035;-69
2022/08/02 23:00:07;;;;;;;2.53;1.52;;;29.00;54.10;;;;;;10905525;32;20015;-69
2022/08/02 23:06:09;;;;;;;1.90;1.10;;;28.90;54.10;;;;;;10891936;32;20301;-69
2022/08/02 23:12:11;;;;;;;1.08;0.77;;;28.80;54.10;;;;;;10905236;32;20011;-69
2022/08/02 23:25:09;;;;;;;1.27;0.93;;;28.60;54.30;;;;;;10904895;32;20015;-70
2022/08/02 23:31:34;;;;;;;1.52;0.98;;;28.50;54.30;;;;;;10904485;32;20050;-69
2022/08/02 23:37:37;;;;;;;1.23;0.70;;;28.40;54.40;;;;;;10904628;32;20015;-70
2022/08/02 23:43:38;;;;;;;1.58;0.62;;;28.40;54.40;;;;;;10904473;32;20042;-71
2022/08/02 23:49:40;;;;;;;1.10;0.73;;;28.40;54.40;;;;;;10904331;32;20363;-69
2022/08/02 23:55:42;;;;;;;1.85;0.90;;;28.40;54.50;;;;;;10902267;32;20057;-71
